createdAt,value
2018-03-06T00:29:49.177Z,5.70
2018-03-06T00:32:16.985Z,5.53
2018-03-06T00:34:45.569Z,6.33
2018-03-06T00:37:13.353Z,2.73
2018-03-06T00:39:41.939Z,7.23
2018-03-06T00:42:09.757Z,6.27
2018-03-06T00:44:37.596Z,6.60
2018-03-06T00:47:05.403Z,2.93
2018-03-06T00:49:34.039Z,4.83
2018-03-06T00:52:01.854Z,3.23
2018-03-06T00:54:29.654Z,4.20
2018-03-06T00:56:57.442Z,3.20
2018-03-06T00:59:25.279Z,2.03
2018-03-06T01:01:53.097Z,8.37
2018-03-06T01:04:20.917Z,5.00
2018-03-06T01:06:48.720Z,3.80
2018-03-06T01:09:16.531Z,3.10
2018-03-06T01:11:44.359Z,3.73
2018-03-06T01:14:12.169Z,1.63
2018-03-06T01:16:39.966Z,3.90
2018-03-06T01:19:07.778Z,3.70
2018-03-06T01:21:36.383Z,5.30
2018-03-06T01:24:04.174Z,2.27
2018-03-06T01:26:31.965Z,6.20
2018-03-06T01:28:59.766Z,3.47
2018-03-06T01:31:27.586Z,1.83
2018-03-06T01:33:55.367Z,1.40
2018-03-06T01:36:23.191Z,4.67
2018-03-06T01:38:51.018Z,1.27
2018-03-06T01:41:19.694Z,2.10
2018-03-06T01:43:47.488Z,2.67
2018-03-06T01:46:16.049Z,2.80
2018-03-06T01:48:43.874Z,2.80
2018-03-06T01:51:11.713Z,3.80
2018-03-06T01:53:39.524Z,1.07
2018-03-06T01:56:07.321Z,2.27
2018-03-06T01:58:35.173Z,3.70
2018-03-06T02:01:02.990Z,1.60
2018-03-06T02:03:30.797Z,1.30
2018-03-06T02:05:58.598Z,1.30
2018-03-06T02:08:26.427Z,7.13
2018-03-06T02:10:54.224Z,1.80
2018-03-06T02:13:22.030Z,2.37
2018-03-06T02:15:50.001Z,2.40
2018-03-06T02:18:18.613Z,5.70
2018-03-06T02:20:47.221Z,1.70
2018-03-06T02:23:15.765Z,4.73
2018-03-06T02:25:43.562Z,2.93
2018-03-06T02:28:12.126Z,6.27
2018-03-06T02:30:40.781Z,1.93
2018-03-06T02:33:08.590Z,1.57
2018-03-06T02:35:37.137Z,9.20
2018-03-06T02:38:04.933Z,2.47
2018-03-06T02:40:33.502Z,1.27
2018-03-06T02:43:02.095Z,1.37
2018-03-06T02:45:29.902Z,2.40
2018-03-06T02:47:57.713Z,2.37
2018-03-06T02:50:25.506Z,4.07
2018-03-06T02:52:53.357Z,3.10
2018-03-06T02:55:21.188Z,2.93
2018-03-06T02:57:48.993Z,3.00
2018-03-06T03:00:17.553Z,3.77
2018-03-06T03:02:45.356Z,0.98
2018-03-06T03:05:13.214Z,3.85
2018-03-06T03:07:41.101Z,2.20
2018-03-06T03:10:08.956Z,2.30
2018-03-06T03:12:36.753Z,2.17
2018-03-06T03:15:04.547Z,4.30
2018-03-06T03:17:33.129Z,2.93
2018-03-06T03:20:01.714Z,4.67
2018-03-06T03:22:29.519Z,1.93
2018-03-06T03:24:57.325Z,3.50
2018-03-06T03:27:25.138Z,1.00
2018-03-06T03:29:52.949Z,3.50
2018-03-06T03:32:20.733Z,1.90
2018-03-06T03:34:48.537Z,5.40
2018-03-06T03:37:16.377Z,2.87
2018-03-06T03:39:44.945Z,2.50
2018-03-06T03:42:12.775Z,3.77
2018-03-06T03:44:40.582Z,3.03
2018-03-06T03:47:09.151Z,2.07
2018-03-06T03:49:36.951Z,1.50
2018-03-06T03:52:04.780Z,7.23
2018-03-06T03:54:32.594Z,1.37
2018-03-06T03:57:00.413Z,2.87
2018-03-06T03:59:28.214Z,1.67
2018-03-06T04:01:56.050Z,1.80
2018-03-06T04:04:24.634Z,5.53
2018-03-06T04:06:52.417Z,6.10
2018-03-06T04:09:21.008Z,1.50
2018-03-06T04:11:48.795Z,4.27
2018-03-06T04:14:16.581Z,2.10
2018-03-06T04:16:44.444Z,5.13
2018-03-06T04:19:12.996Z,4.10
2018-03-06T04:21:41.577Z,9.97
2018-03-06T04:24:09.402Z,3.00
2018-03-06T04:26:37.230Z,3.97
2018-03-06T04:29:05.033Z,2.60
2018-03-06T04:31:32.829Z,3.30
2018-03-06T04:34:00.618Z,5.47
2018-03-06T04:36:28.425Z,8.53
2018-03-06T04:38:56.208Z,5.43
2018-03-06T04:41:24.766Z,13.63
2018-03-06T04:43:52.578Z,3.97
2018-03-06T04:46:20.417Z,3.80
2018-03-06T04:48:48.212Z,4.20
2018-03-06T04:51:16.053Z,3.40
2018-03-06T04:53:43.863Z,5.27
2018-03-06T04:56:11.674Z,2.50
2018-03-06T04:58:39.482Z,3.00
2018-03-06T05:01:07.291Z,5.63
2018-03-06T05:03:35.874Z,3.43
2018-03-06T05:06:04.505Z,5.10
2018-03-06T05:08:32.360Z,3.03
2018-03-06T05:11:00.181Z,6.30
2018-03-06T05:13:28.007Z,3.37
2018-03-06T05:15:55.822Z,8.20
2018-03-06T05:18:24.397Z,3.53
2018-03-06T05:20:53.172Z,4.20
2018-03-06T05:23:20.993Z,2.83
2018-03-06T05:25:48.783Z,3.83
2018-03-06T05:28:16.601Z,6.67
2018-03-06T05:30:45.149Z,2.40
2018-03-06T05:33:12.961Z,2.70
2018-03-06T05:35:40.801Z,5.93
2018-03-06T05:38:08.638Z,2.63
2018-03-06T05:40:36.455Z,5.80
2018-03-06T05:43:04.273Z,1.40
2018-03-06T05:45:32.113Z,2.20
2018-03-06T05:47:59.918Z,3.63
2018-03-06T05:50:27.710Z,3.70
2018-03-06T05:52:56.273Z,1.70
2018-03-06T05:55:24.870Z,2.30
2018-03-06T05:57:52.696Z,3.10
2018-03-06T06:00:20.636Z,1.77
2018-03-06T06:02:48.433Z,5.13
2018-03-06T06:05:16.225Z,2.40
2018-03-06T06:07:44.805Z,1.60
2018-03-06T06:10:13.390Z,4.70
2018-03-06T06:12:41.243Z,2.43
2018-03-06T06:15:09.053Z,2.03
2018-03-06T06:17:37.593Z,7.33
2018-03-06T06:20:05.370Z,2.53
2018-03-06T06:22:33.167Z,4.50
2018-03-06T06:25:01.730Z,8.93
2018-03-06T06:27:29.502Z,9.90
2018-03-06T06:29:58.056Z,4.73
2018-03-06T06:32:25.879Z,5.40
2018-03-06T06:34:54.481Z,17.23
2018-03-06T06:37:22.312Z,2.50
2018-03-06T06:39:50.097Z,3.60
2018-03-06T06:42:17.914Z,2.83
2018-03-06T06:44:45.683Z,5.00
2018-03-06T06:47:14.254Z,0.90
2018-03-06T06:49:42.038Z,2.70
2018-03-06T06:52:09.826Z,2.77
2018-03-06T06:54:37.626Z,6.50
2018-03-06T06:57:05.457Z,4.50
2018-03-06T06:59:33.986Z,3.67
2018-03-06T07:02:01.866Z,2.00
2018-03-06T07:04:29.650Z,2.90
2018-03-06T07:06:58.218Z,5.60
2018-03-06T07:09:26.015Z,4.77
2018-03-06T07:11:54.635Z,7.13
2018-03-06T07:14:22.488Z,4.00
2018-03-06T07:16:50.277Z,7.13
2018-03-06T07:19:18.050Z,5.90
2018-03-06T07:21:45.825Z,7.13
2018-03-06T07:26:58.726Z,2.43
2018-03-06T07:29:26.538Z,6.67
2018-03-06T07:31:54.314Z,1.87
2018-03-06T07:34:22.931Z,11.30
2018-03-06T07:36:50.766Z,2.47
2018-03-06T07:39:18.528Z,5.60
2018-03-06T07:41:46.385Z,2.23
2018-03-06T07:44:14.157Z,9.33
2018-03-06T07:46:42.693Z,7.90
2018-03-06T07:49:10.506Z,5.47
2018-03-06T07:51:39.080Z,6.90
2018-03-06T07:54:07.689Z,13.97
2018-03-06T07:56:35.487Z,7.17
2018-03-06T07:59:03.318Z,7.73
2018-03-06T08:01:31.162Z,7.10
2018-03-06T08:03:59.748Z,8.40
2018-03-06T08:06:28.361Z,4.53
2018-03-06T08:08:56.918Z,3.70
2018-03-06T08:11:24.715Z,3.43
2018-03-06T08:13:52.651Z,9.43
2018-03-06T08:16:21.528Z,10.43
2018-03-06T08:18:50.072Z,6.57
2018-03-06T08:21:17.865Z,4.10
2018-03-06T08:23:46.346Z,4.50
2018-03-06T08:26:15.778Z,4.70
2018-03-06T08:28:44.557Z,3.93
2018-03-06T08:31:13.140Z,5.43
2018-03-06T08:33:41.689Z,1.83
2018-03-06T08:36:09.510Z,6.97
2018-03-06T08:38:38.194Z,4.80
2018-03-06T08:41:07.009Z,18.73
2018-03-06T08:43:34.798Z,8.10
2018-03-06T08:46:02.594Z,9.00
2018-03-06T08:48:31.960Z,7.00
2018-03-06T08:50:59.822Z,11.00
2018-03-06T08:53:27.619Z,10.70
2018-03-06T08:55:56.191Z,10.03
2018-03-06T08:58:24.791Z,8.30
2018-03-06T09:00:53.399Z,11.30
2018-03-06T09:03:21.237Z,15.23
2018-03-06T09:05:49.061Z,11.60
2018-03-06T09:08:16.860Z,3.50
2018-03-06T09:10:46.209Z,7.63
2018-03-06T09:13:14.030Z,5.87
2018-03-06T09:15:42.569Z,8.10
2018-03-06T09:18:10.418Z,5.87
2018-03-06T09:20:38.208Z,5.97
2018-03-06T09:23:06.010Z,7.07
2018-03-06T09:25:34.596Z,3.30
2018-03-06T09:28:03.175Z,7.18
2018-03-06T09:30:31.758Z,4.13
2018-03-06T09:33:00.393Z,2.57
2018-03-06T09:35:28.194Z,7.13
2018-03-06T09:37:56.817Z,11.57
2018-03-06T09:40:24.617Z,3.50
2018-03-06T09:42:52.394Z,4.33
2018-03-06T09:45:20.206Z,7.13
2018-03-06T09:47:48.011Z,2.90
2018-03-06T09:50:15.847Z,5.60
2018-03-06T09:52:43.637Z,6.30
2018-03-06T09:55:11.438Z,3.33
2018-03-06T09:57:40.023Z,7.97
2018-03-06T10:00:08.570Z,6.00
2018-03-06T10:02:36.352Z,6.93
2018-03-06T10:05:04.157Z,3.80
2018-03-06T10:07:31.948Z,6.17
2018-03-06T10:09:59.739Z,8.60
2018-03-06T10:12:27.555Z,11.90
2018-03-06T10:14:57.346Z,3.43
2018-03-06T10:17:25.914Z,7.13
2018-03-06T10:19:53.715Z,18.83
2018-03-06T10:22:21.519Z,4.20
2018-03-06T10:24:49.314Z,5.50
2018-03-06T10:27:17.114Z,7.30
2018-03-06T10:29:44.915Z,6.53
2018-03-06T10:32:12.710Z,4.33
2018-03-06T10:34:41.294Z,5.83
2018-03-06T10:37:09.844Z,9.60
2018-03-06T10:39:38.429Z,8.33
2018-03-06T10:42:06.234Z,7.60
2018-03-06T10:44:34.799Z,26.77
2018-03-06T10:47:03.377Z,8.00
2018-03-06T10:49:31.937Z,7.77
2018-03-06T10:51:59.798Z,11.20
2018-03-06T10:54:27.584Z,9.20
2018-03-06T10:56:55.373Z,9.00
2018-03-06T10:59:23.910Z,8.43
2018-03-06T11:01:57.547Z,8.60
2018-03-06T11:04:26.142Z,15.10
2018-03-06T11:06:54.695Z,16.13
2018-03-06T11:09:22.508Z,19.50
2018-03-06T11:11:50.286Z,15.63
2018-03-06T11:14:18.107Z,13.30
2018-03-06T11:16:45.918Z,8.87
2018-03-06T11:19:13.697Z,19.83
2018-03-06T11:21:43.025Z,15.03
2018-03-06T11:24:11.064Z,11.83
2018-03-06T11:26:38.848Z,12.30
2018-03-06T11:29:06.662Z,13.30
2018-03-06T11:31:34.451Z,12.57
2018-03-06T11:34:02.251Z,20.47
2018-03-06T11:36:30.093Z,16.07
2018-03-06T11:38:57.889Z,17.40
2018-03-06T11:41:26.438Z,14.50
2018-03-06T11:43:54.221Z,8.83
2018-03-06T11:46:22.015Z,8.83
2018-03-06T11:48:50.557Z,12.50
2018-03-06T11:51:18.349Z,22.03
2018-03-06T11:53:46.928Z,9.40
2018-03-06T11:56:15.488Z,14.53
2018-03-06T11:58:43.274Z,12.60
2018-03-06T12:01:11.070Z,14.30
2018-03-06T12:03:38.857Z,11.77
2018-03-06T12:06:06.677Z,12.30
2018-03-06T12:08:35.259Z,10.93
2018-03-06T12:11:03.931Z,14.05
2018-03-06T12:13:31.714Z,10.93
2018-03-06T12:16:00.406Z,15.70
2018-03-06T12:18:29.008Z,12.83
2018-03-06T12:20:56.802Z,12.30
2018-03-06T12:23:24.606Z,11.33
2018-03-06T12:25:53.171Z,12.73
2018-03-06T12:28:21.036Z,19.23
2018-03-06T12:30:48.821Z,10.97
2018-03-06T12:33:17.378Z,12.80
2018-03-06T12:35:45.231Z,22.07
2018-03-06T12:38:13.044Z,10.97
2018-03-06T12:40:41.598Z,9.93
2018-03-06T12:43:09.455Z,16.63
2018-03-06T12:45:37.270Z,18.03
2018-03-06T12:48:05.110Z,18.33
2018-03-06T12:50:33.658Z,12.90
2018-03-06T12:53:01.514Z,22.97
2018-03-06T12:55:29.361Z,11.60
2018-03-06T12:57:57.157Z,20.47
2018-03-06T13:00:24.953Z,17.87
2018-03-06T13:02:53.686Z,12.13
2018-03-06T13:05:21.458Z,19.23
2018-03-06T13:07:49.283Z,20.53
2018-03-06T13:10:17.865Z,20.53
2018-03-06T13:12:45.672Z,16.50
2018-03-06T13:15:13.449Z,13.77
2018-03-06T13:17:41.257Z,14.67
2018-03-06T13:20:09.126Z,18.90
2018-03-06T13:22:36.949Z,20.13
2018-03-06T13:25:04.741Z,14.37
2018-03-06T13:27:33.288Z,19.37
2018-03-06T13:30:01.151Z,21.50
2018-03-06T13:32:28.938Z,21.80
2018-03-06T13:34:57.521Z,18.87
2018-03-06T13:37:25.294Z,20.93
2018-03-06T13:39:53.113Z,33.93
2018-03-06T13:42:20.923Z,30.10
2018-03-06T13:44:49.481Z,33.33
2018-03-06T13:47:17.265Z,24.30
2018-03-06T13:49:45.039Z,26.17
2018-03-06T13:52:13.729Z,26.27
2018-03-06T13:54:41.562Z,23.57
2018-03-06T13:57:09.364Z,20.07
2018-03-06T13:59:37.969Z,21.23
2018-03-06T14:02:05.822Z,25.53
2018-03-06T14:04:33.681Z,32.10
2018-03-06T14:07:02.262Z,21.80
2018-03-06T14:09:30.850Z,21.73
2018-03-06T14:11:59.422Z,38.47
2018-03-06T14:14:27.973Z,36.67
2018-03-06T14:16:55.799Z,28.53
2018-03-06T14:19:23.683Z,34.10
2018-03-06T14:21:51.466Z,21.17
2018-03-06T14:24:19.249Z,34.63
2018-03-06T14:26:47.037Z,27.17
2018-03-06T14:29:15.603Z,23.23
2018-03-06T14:31:43.428Z,27.00
2018-03-06T14:34:11.240Z,17.40
2018-03-06T14:36:39.883Z,21.97
2018-03-06T14:39:07.690Z,24.40
2018-03-06T14:41:36.242Z,27.13
2018-03-06T14:44:04.035Z,15.47
2018-03-06T14:46:32.597Z,19.60
2018-03-06T14:49:00.390Z,20.87
2018-03-06T14:51:29.021Z,20.33
2018-03-06T14:53:56.825Z,18.80
2018-03-06T14:56:25.386Z,29.03
2018-03-06T14:58:53.161Z,29.20
2018-03-06T15:01:21.738Z,17.70
2018-03-06T15:03:49.546Z,33.80
2018-03-06T15:06:18.090Z,25.80
2018-03-06T15:08:45.880Z,25.93
2018-03-06T15:11:14.529Z,26.07
2018-03-06T15:13:42.335Z,22.00
2018-03-06T15:16:10.958Z,23.43
2018-03-06T15:18:38.746Z,15.80
2018-03-06T15:21:06.542Z,28.40
2018-03-06T15:23:35.097Z,22.63
2018-03-06T15:26:02.894Z,23.00
2018-03-06T15:28:31.454Z,29.17
2018-03-06T15:30:59.314Z,15.33
2018-03-06T15:33:27.137Z,15.17
2018-03-06T15:35:54.970Z,22.20
2018-03-06T15:38:23.558Z,17.17
2018-03-06T15:40:51.355Z,37.97
2018-03-06T15:43:19.318Z,14.80
2018-03-06T15:45:47.260Z,25.93
2018-03-06T15:48:15.696Z,22.93
2018-03-06T15:50:44.165Z,24.73
2018-03-06T15:53:11.959Z,15.70
2018-03-06T15:55:39.829Z,18.83
2018-03-06T15:58:07.702Z,16.90
2018-03-06T16:00:35.542Z,14.83
2018-03-06T16:03:03.322Z,18.03
2018-03-06T16:05:31.389Z,18.87
2018-03-06T16:08:00.016Z,16.63
2018-03-06T16:10:27.943Z,19.17
2018-03-06T16:12:57.265Z,27.37
2018-03-06T16:15:25.850Z,21.37
2018-03-06T16:17:54.399Z,17.07
2018-03-06T16:20:22.194Z,20.27
2018-03-06T16:22:50.746Z,16.77
2018-03-06T16:25:18.539Z,29.53
2018-03-06T16:27:47.110Z,17.87
2018-03-06T16:30:14.900Z,24.97
2018-03-06T16:32:42.675Z,24.97
2018-03-06T16:35:10.493Z,24.00
2018-03-06T16:37:38.294Z,18.07
2018-03-06T16:40:06.103Z,24.67
2018-03-06T16:42:33.955Z,28.60
2018-03-06T16:45:01.748Z,21.10
2018-03-06T16:47:29.595Z,15.60
2018-03-06T16:49:57.689Z,17.57
2018-03-06T16:52:25.523Z,16.90
2018-03-06T16:54:53.294Z,14.50
2018-03-06T16:57:21.179Z,22.57
2018-03-06T16:59:49.001Z,15.17
2018-03-06T17:02:17.123Z,18.53
2018-03-06T17:04:45.163Z,18.13
2018-03-06T17:07:12.914Z,19.03
2018-03-06T17:09:41.226Z,21.07
2018-03-06T17:12:09.687Z,15.87
2018-03-06T17:14:37.467Z,17.10
2018-03-06T17:17:05.253Z,31.50
2018-03-06T17:19:33.165Z,16.93
2018-03-06T17:22:01.028Z,16.23
2018-03-06T17:24:28.946Z,14.10
2018-03-06T17:26:56.736Z,21.10
2018-03-06T17:29:25.318Z,17.27
2018-03-06T17:31:54.718Z,18.53
2018-03-06T17:34:23.263Z,16.90
2018-03-06T17:36:51.094Z,14.17
2018-03-06T17:39:18.883Z,25.60
2018-03-06T17:41:46.690Z,18.07
2018-03-06T17:44:15.283Z,20.10
2018-03-06T17:46:43.970Z,21.50
2018-03-06T17:49:12.526Z,24.17
2018-03-06T17:51:40.339Z,21.83
2018-03-06T17:54:08.190Z,19.80
2018-03-06T17:56:35.974Z,24.73
2018-03-06T17:59:03.777Z,16.53
2018-03-06T18:01:31.604Z,18.80
2018-03-06T18:03:59.426Z,20.13
2018-03-06T18:06:27.202Z,27.70
2018-03-06T18:08:55.752Z,14.90
2018-03-06T18:11:23.535Z,14.33
2018-03-06T18:13:52.172Z,27.57
2018-03-06T18:16:19.996Z,23.60
2018-03-06T18:18:49.595Z,24.03
2018-03-06T18:21:17.411Z,16.00
2018-03-06T18:23:45.210Z,15.37
2018-03-06T18:26:13.046Z,42.57
2018-03-06T18:28:40.855Z,20.60
2018-03-06T18:31:09.450Z,26.60
2018-03-06T18:33:38.279Z,18.63
2018-03-06T18:36:06.082Z,22.37
2018-03-06T18:38:33.940Z,20.40
2018-03-06T18:41:01.785Z,22.17
2018-03-06T18:43:29.618Z,23.90
2018-03-06T18:45:57.412Z,22.27
2018-03-06T18:48:25.195Z,25.50
2018-03-06T18:51:04.629Z,29.97
2018-03-06T18:53:33.083Z,17.70
2018-03-06T18:56:00.877Z,18.90
2018-03-06T18:58:28.680Z,38.03
2018-03-06T19:01:19.874Z,22.60
2018-03-06T19:03:59.343Z,19.73
2018-03-06T19:06:33.743Z,21.53
2018-03-06T19:09:01.539Z,32.97
2018-03-06T19:11:29.394Z,34.77
2018-03-06T19:13:57.864Z,29.10
2018-03-06T19:16:25.702Z,27.50
2018-03-06T19:18:53.487Z,25.43
2018-03-06T19:21:22.078Z,24.73
2018-03-06T19:23:51.258Z,17.50
2018-03-06T19:26:19.963Z,26.37
2018-03-06T19:28:47.829Z,21.50
2018-03-06T19:31:15.696Z,31.60
2018-03-06T19:33:43.517Z,22.70
2018-03-06T19:36:11.329Z,20.87
2018-03-06T19:38:39.133Z,22.87
2018-03-06T19:41:06.969Z,26.40
2018-03-06T19:43:34.782Z,19.93
2018-03-06T19:46:02.583Z,31.27
2018-03-06T19:48:30.400Z,15.27
2018-03-06T19:50:59.150Z,21.47
2018-03-06T19:53:27.370Z,25.10
2018-03-06T19:55:55.181Z,32.83
2018-03-06T19:58:23.119Z,29.40
2018-03-06T20:00:50.903Z,24.13
2018-03-06T20:03:20.226Z,36.53
2018-03-06T20:05:48.058Z,29.57
2018-03-06T20:08:16.691Z,22.90
2018-03-06T20:10:44.519Z,23.90
2018-03-06T20:13:13.077Z,30.20
2018-03-06T20:15:40.871Z,27.67
2018-03-06T20:18:08.686Z,37.63
2018-03-06T20:20:36.482Z,25.40
2018-03-06T20:23:05.082Z,20.40
2018-03-06T20:25:39.158Z,19.50
2018-03-06T20:28:06.970Z,19.70
2018-03-06T20:30:40.369Z,29.37
2018-03-06T20:33:19.544Z,18.03
2018-03-06T20:35:47.704Z,16.83
2018-03-06T20:38:21.082Z,16.80
2018-03-06T20:40:48.937Z,26.63
2018-03-06T20:43:17.498Z,20.10
2018-03-06T20:45:51.864Z,18.20
2018-03-06T20:48:20.010Z,20.10
2018-03-06T20:50:47.813Z,21.20
2018-03-06T20:53:21.167Z,17.40
2018-03-06T20:55:48.994Z,23.67
2018-03-06T20:58:17.578Z,22.23
2018-03-06T21:00:45.461Z,21.17
2018-03-06T21:03:14.046Z,22.47
2018-03-06T21:05:42.586Z,21.60
2018-03-06T21:08:10.406Z,16.53
2018-03-06T21:10:39.476Z,17.10
2018-03-06T21:13:08.024Z,22.03
2018-03-06T21:15:35.884Z,21.73
2018-03-06T21:18:03.710Z,27.73
2018-03-06T21:20:32.254Z,16.53
2018-03-06T21:23:00.042Z,14.73
2018-03-06T21:25:28.621Z,20.43
2018-03-06T21:27:57.283Z,20.57
2018-03-06T21:30:25.351Z,18.40
2018-03-06T21:32:53.138Z,27.87
2018-03-06T21:35:21.035Z,24.33
2018-03-06T21:37:48.939Z,18.50
2018-03-06T21:40:16.822Z,20.73
2018-03-06T21:42:44.977Z,17.23
2018-03-06T21:45:12.745Z,14.40
2018-03-06T21:47:40.526Z,19.90
2018-03-06T21:50:09.542Z,18.40
2018-03-06T21:52:37.375Z,11.10
2018-03-06T21:55:05.955Z,11.90
2018-03-06T21:57:33.752Z,18.03
2018-03-06T22:00:02.298Z,16.63
2018-03-06T22:02:30.098Z,19.33
2018-03-06T22:04:58.648Z,16.13
2018-03-06T22:07:26.420Z,13.10
2018-03-06T22:09:54.203Z,11.63
2018-03-06T22:12:22.801Z,13.07
2018-03-06T22:14:51.342Z,7.40
2018-03-06T22:17:19.150Z,11.80
2018-03-06T22:19:47.734Z,14.02
2018-03-06T22:22:16.266Z,8.80
2018-03-06T22:24:44.031Z,13.17
2018-03-06T22:27:11.802Z,14.13
2018-03-06T22:29:39.655Z,10.13
2018-03-06T22:32:07.413Z,6.97
2018-03-06T22:34:35.196Z,11.43
2018-03-06T22:37:03.001Z,16.13
2018-03-06T22:39:31.650Z,10.60
2018-03-06T22:41:59.445Z,8.50
2018-03-06T22:44:28.032Z,8.67
2018-03-06T22:46:56.579Z,10.13
2018-03-06T22:49:24.393Z,12.53
2018-03-06T22:51:52.168Z,14.00
2018-03-06T22:54:19.977Z,8.60
2018-03-06T22:56:47.884Z,16.50
2018-03-06T22:59:15.690Z,10.63
2018-03-06T23:01:43.480Z,8.17
2018-03-06T23:04:11.255Z,6.20
2018-03-06T23:06:39.799Z,8.80
2018-03-06T23:09:07.671Z,17.07
2018-03-06T23:11:35.439Z,14.43
2018-03-06T23:14:03.232Z,7.50
2018-03-06T23:16:31.794Z,10.00
2018-03-06T23:18:59.587Z,6.80
2018-03-06T23:21:28.214Z,5.90
2018-03-06T23:23:55.993Z,7.77
2018-03-06T23:26:23.773Z,13.70
2018-03-06T23:28:51.549Z,4.60
2018-03-06T23:31:19.345Z,12.97
2018-03-06T23:33:47.121Z,5.53
2018-03-06T23:36:14.951Z,5.20
2018-03-06T23:38:43.517Z,10.10
2018-03-06T23:41:11.295Z,6.10
2018-03-06T23:43:39.860Z,6.37
2018-03-06T23:46:07.682Z,7.43
2018-03-06T23:48:35.474Z,9.17
2018-03-06T23:51:03.237Z,14.40
2018-03-06T23:53:31.017Z,7.67
2018-03-06T23:55:58.888Z,6.07
2018-03-06T23:58:26.657Z,3.93
